AFL026 URMM-UUEE
Flight info
| Callsign | AFL026 |
|---|---|
| Flight time | N/A |
| Altitude | 37000 |
| Route | URILU5M URILU R227 BEMES DCT VULFI DCT TUVGI/K0904F380 DCT EVZUN DCT ZIZAR DCT VAZLU DCT UZZID DCT NOKLI/K0909F390 N72 WGD G481 OBABI T619 LUGIL/K0919F380 T619 UMRAL/K0915F390 P163 LADIM/K0919F380 P163 GOLRI L736 OLOPI OLOPI3W |
| Aircraft | B77W/H-SDE1E2E3FGHIJ2J3J4J5M1RWXY/LB1D1 |
Departure
| Time | 2026-04-30 09:30 |
|---|---|
| Airport | Mineralnye Vody Airport (URMM) |
Arrival
| Time | N/A |
|---|---|
| Airport | Sheremetyevo International Airport (UUEE) |
| Time | Latitude | Longitude | Altitude | Speed | Heading |
|---|---|---|---|---|---|
| 2026-04-30 08:35 | 44.21941 | 43.08644 | 1065 ft | 0 kts | 212° |
| 2026-04-30 09:15 | 44.21943 | 43.08646 | 1065 ft | 1 kts | 211° |
| 2026-04-30 09:15 | 44.21957 | 43.08654 | 1065 ft | 2 kts | 188° |
| 2026-04-30 09:16 | 44.21972 | 43.08654 | 1065 ft | 2 kts | 167° |
| 2026-04-30 09:16 | 44.21986 | 43.08647 | 1065 ft | 2 kts | 148° |
| 2026-04-30 09:16 | 44.21998 | 43.08634 | 1065 ft | 2 kts | 129° |
| 2026-04-30 09:16 | 44.22006 | 43.08617 | 1065 ft | 2 kts | 118° |
| 2026-04-30 09:17 | 44.22013 | 43.08598 | 1065 ft | 2 kts | 121° |
| 2026-04-30 09:17 | 44.22021 | 43.08581 | 1065 ft | 2 kts | 122° |
| 2026-04-30 09:17 | 44.22029 | 43.08563 | 1065 ft | 2 kts | 122° |
| 2026-04-30 09:17 | 44.22034 | 43.08553 | 1065 ft | 0 kts | 122° |
| 2026-04-30 09:22 | 44.22033 | 43.08555 | 1065 ft | 0 kts | 122° |
| 2026-04-30 09:22 | 44.22021 | 43.08581 | 1065 ft | 5 kts | 122° |
| 2026-04-30 09:22 | 44.21993 | 43.08644 | 1065 ft | 13 kts | 122° |
| 2026-04-30 09:23 | 44.21938 | 43.08764 | 1065 ft | 16 kts | 123° |
| 2026-04-30 09:25 | 44.21897 | 43.08852 | 1065 ft | 12 kts | 125° |
| 2026-04-30 09:25 | 44.21850 | 43.08955 | 1064 ft | 13 kts | 120° |
| 2026-04-30 09:25 | 44.21810 | 43.09073 | 1064 ft | 13 kts | 117° |
| 2026-04-30 09:26 | 44.21762 | 43.09198 | 1065 ft | 17 kts | 122° |
| 2026-04-30 09:26 | 44.21670 | 43.09356 | 1065 ft | 22 kts | 126° |
| 2026-04-30 09:26 | 44.21581 | 43.09560 | 1065 ft | 26 kts | 122° |
| 2026-04-30 09:26 | 44.21518 | 43.09785 | 1065 ft | 25 kts | 81° |
| 2026-04-30 09:27 | 44.21545 | 43.09963 | 1065 ft | 1 kts | 81° |
| 2026-04-30 09:27 | 44.21547 | 43.09998 | 1065 ft | 5 kts | 82° |
| 2026-04-30 09:27 | 44.21563 | 43.10062 | 1065 ft | 8 kts | 73° |
| 2026-04-30 09:27 | 44.21581 | 43.10153 | 1065 ft | 13 kts | 71° |
| 2026-04-30 09:28 | 44.21653 | 43.10263 | 1065 ft | 15 kts | 33° |
| 2026-04-30 09:28 | 44.21740 | 43.10324 | 1064 ft | 10 kts | 360° |
| 2026-04-30 09:28 | 44.21795 | 43.10270 | 1065 ft | 10 kts | 306° |
| 2026-04-30 09:28 | 44.21805 | 43.10248 | 1065 ft | 0 kts | 301° |
| 2026-04-30 09:29 | 44.21816 | 43.10227 | 1065 ft | 8 kts | 305° |
| 2026-04-30 09:29 | 44.21944 | 43.09938 | 1065 ft | 74 kts | 303° |
| 2026-04-30 09:29 | 44.22362 | 43.09003 | 1065 ft | 150 kts | 304° |
| 2026-04-30 09:29 | 44.23017 | 43.07561 | 1394 ft | 189 kts | 304° |
| 2026-04-30 09:30 | 44.23819 | 43.06177 | 2297 ft | 191 kts | 310° |
| 2026-04-30 09:30 | 44.24567 | 43.04682 | 3037 ft | 185 kts | 301° |
| 2026-04-30 09:30 | 44.25241 | 43.03170 | 3471 ft | 196 kts | 305° |
| 2026-04-30 09:30 | 44.26011 | 43.01546 | 3806 ft | 212 kts | 301° |
| 2026-04-30 09:31 | 44.26796 | 42.99586 | 3871 ft | 245 kts | 300° |
| 2026-04-30 09:31 | 44.27702 | 42.97442 | 4230 ft | 264 kts | 301° |
| 2026-04-30 09:31 | 44.28643 | 42.95252 | 4993 ft | 265 kts | 302° |
| 2026-04-30 09:31 | 44.29636 | 42.93068 | 5766 ft | 267 kts | 309° |
| 2026-04-30 09:32 | 44.31071 | 42.91466 | 6389 ft | 273 kts | 338° |
| 2026-04-30 09:32 | 44.32952 | 42.91060 | 7064 ft | 277 kts | 8° |
| 2026-04-30 09:32 | 44.34721 | 42.91990 | 7744 ft | 279 kts | 37° |
| 2026-04-30 09:32 | 44.35979 | 42.94048 | 8419 ft | 282 kts | 65° |
| 2026-04-30 09:33 | 44.36380 | 42.96697 | 9068 ft | 284 kts | 94° |
| 2026-04-30 09:33 | 44.35846 | 42.99307 | 9706 ft | 287 kts | 120° |
| 2026-04-30 09:33 | 44.34795 | 43.01681 | 10282 ft | 292 kts | 120° |
| 2026-04-30 09:33 | 44.33851 | 43.04328 | 10334 ft | 320 kts | 115° |
| 2026-04-30 09:34 | 44.32888 | 43.07273 | 10378 ft | 347 kts | 115° |
| 2026-04-30 09:34 | 44.31864 | 43.10471 | 10480 ft | 373 kts | 114° |
| 2026-04-30 09:34 | 44.30808 | 43.13832 | 11157 ft | 382 kts | 114° |
| 2026-04-30 09:34 | 44.29749 | 43.17206 | 12091 ft | 383 kts | 114° |
| 2026-04-30 09:35 | 44.28684 | 43.20609 | 12943 ft | 386 kts | 114° |
| 2026-04-30 09:35 | 44.27658 | 43.24093 | 13688 ft | 390 kts | 110° |
| 2026-04-30 09:35 | 44.26836 | 43.27700 | 14471 ft | 396 kts | 108° |
| 2026-04-30 09:35 | 44.25977 | 43.31368 | 15281 ft | 399 kts | 108° |
| 2026-04-30 09:36 | 44.25123 | 43.35068 | 16032 ft | 404 kts | 108° |
| 2026-04-30 09:36 | 44.24267 | 43.38765 | 16773 ft | 408 kts | 108° |
| 2026-04-30 09:36 | 44.23395 | 43.42526 | 17500 ft | 413 kts | 108° |
| 2026-04-30 09:36 | 44.22507 | 43.46352 | 18214 ft | 417 kts | 108° |
| 2026-04-30 09:37 | 44.21607 | 43.50222 | 18915 ft | 422 kts | 108° |
| 2026-04-30 09:37 | 44.20699 | 43.54118 | 19608 ft | 426 kts | 108° |
| 2026-04-30 09:37 | 44.19781 | 43.58045 | 20292 ft | 430 kts | 108° |
| 2026-04-30 09:37 | 44.18853 | 43.62015 | 20965 ft | 434 kts | 108° |
| 2026-04-30 09:38 | 44.17913 | 43.66023 | 21626 ft | 439 kts | 109° |
| 2026-04-30 09:38 | 44.16998 | 43.70037 | 22253 ft | 442 kts | 106° |
| 2026-04-30 09:38 | 44.16360 | 43.74242 | 22841 ft | 448 kts | 99° |
| 2026-04-30 09:38 | 44.15899 | 43.78541 | 23552 ft | 451 kts | 100° |
| 2026-04-30 09:39 | 44.15398 | 43.82864 | 24173 ft | 455 kts | 99° |
| 2026-04-30 09:39 | 44.14902 | 43.87264 | 24776 ft | 460 kts | 99° |
| 2026-04-30 09:39 | 44.14401 | 43.91647 | 25379 ft | 464 kts | 99° |
| 2026-04-30 09:39 | 44.13895 | 43.96067 | 25983 ft | 468 kts | 99° |
| 2026-04-30 09:40 | 44.13380 | 44.00552 | 26586 ft | 472 kts | 99° |
| 2026-04-30 09:40 | 44.12860 | 44.05058 | 27169 ft | 476 kts | 99° |
| 2026-04-30 09:40 | 44.12328 | 44.09661 | 27746 ft | 481 kts | 99° |
| 2026-04-30 09:40 | 44.11792 | 44.14267 | 28304 ft | 485 kts | 99° |
| 2026-04-30 09:41 | 44.11259 | 44.18849 | 28839 ft | 489 kts | 99° |
| 2026-04-30 09:41 | 44.10714 | 44.23510 | 29366 ft | 493 kts | 99° |
| 2026-04-30 09:41 | 44.10154 | 44.28277 | 29895 ft | 497 kts | 99° |
| 2026-04-30 09:41 | 44.09599 | 44.32992 | 30410 ft | 500 kts | 99° |
| 2026-04-30 09:42 | 44.09038 | 44.37736 | 30911 ft | 504 kts | 99° |
| 2026-04-30 09:42 | 44.08466 | 44.42564 | 31451 ft | 507 kts | 99° |
| 2026-04-30 09:42 | 44.07893 | 44.47392 | 32111 ft | 506 kts | 99° |
| 2026-04-30 09:42 | 44.07319 | 44.52207 | 32818 ft | 504 kts | 99° |
| 2026-04-30 09:43 | 44.06747 | 44.56989 | 33497 ft | 502 kts | 99° |
| 2026-04-30 09:43 | 44.06236 | 44.61720 | 34102 ft | 500 kts | 98° |
| 2026-04-30 09:43 | 44.05756 | 44.66481 | 34712 ft | 499 kts | 99° |
| 2026-04-30 09:43 | 44.05259 | 44.71256 | 35294 ft | 497 kts | 99° |
| 2026-04-30 09:44 | 44.04770 | 44.75993 | 35849 ft | 496 kts | 99° |
| 2026-04-30 09:44 | 44.04275 | 44.80747 | 36376 ft | 495 kts | 99° |
| 2026-04-30 09:44 | 44.03782 | 44.85477 | 36826 ft | 494 kts | 99° |
| 2026-04-30 09:44 | 44.03296 | 44.90100 | 36997 ft | 490 kts | 99° |
| 2026-04-30 09:45 | 44.02300 | 44.99527 | 36999 ft | 493 kts | 99° |
| 2026-04-30 09:45 | 44.01302 | 45.08895 | 36997 ft | 493 kts | 99° |
| 2026-04-30 09:46 | 44.00290 | 45.18319 | 36997 ft | 493 kts | 99° |
| 2026-04-30 09:46 | 43.99260 | 45.27697 | 36997 ft | 493 kts | 99° |
| 2026-04-30 09:47 | 43.98213 | 45.37111 | 36997 ft | 493 kts | 99° |
| 2026-04-30 09:47 | 43.97156 | 45.46531 | 36997 ft | 493 kts | 99° |
| 2026-04-30 09:48 | 43.96683 | 45.55941 | 36980 ft | 493 kts | 86° |
| 2026-04-30 09:48 | 43.97980 | 45.65249 | 36981 ft | 493 kts | 72° |
| 2026-04-30 09:49 | 44.01026 | 45.73790 | 36981 ft | 493 kts | 56° |
| 2026-04-30 09:49 | 44.05572 | 45.80863 | 36981 ft | 493 kts | 41° |
| 2026-04-30 09:50 | 44.11299 | 45.86005 | 36981 ft | 493 kts | 25° |
| 2026-04-30 09:50 | 44.17760 | 45.88839 | 36981 ft | 493 kts | 10° |
| 2026-04-30 09:51 | 44.24569 | 45.89190 | 36981 ft | 493 kts | 355° |
| 2026-04-30 09:51 | 44.31206 | 45.87013 | 36984 ft | 493 kts | 341° |
| 2026-04-30 09:52 | 44.37866 | 45.85070 | 37016 ft | 493 kts | 354° |
| 2026-04-30 09:52 | 44.44634 | 45.83546 | 36999 ft | 493 kts | 350° |
| 2026-04-30 09:53 | 44.51326 | 45.81759 | 36997 ft | 493 kts | 349° |
| 2026-04-30 09:53 | 44.58057 | 45.79902 | 36997 ft | 493 kts | 349° |
| 2026-04-30 09:54 | 44.64738 | 45.78044 | 36997 ft | 493 kts | 349° |
| 2026-04-30 09:54 | 44.71440 | 45.76173 | 36997 ft | 493 kts | 349° |
| 2026-04-30 09:55 | 44.78122 | 45.74303 | 36997 ft | 493 kts | 349° |
| 2026-04-30 09:55 | 44.84861 | 45.72413 | 36997 ft | 493 kts | 349° |
| 2026-04-30 09:56 | 44.91526 | 45.70539 | 36997 ft | 493 kts | 349° |
| 2026-04-30 09:56 | 44.98260 | 45.68641 | 36997 ft | 493 kts | 349° |
| 2026-04-30 09:57 | 45.04928 | 45.66757 | 36997 ft | 493 kts | 349° |
| 2026-04-30 09:57 | 45.11640 | 45.64856 | 36997 ft | 493 kts | 349° |
| 2026-04-30 09:58 | 45.18344 | 45.62953 | 36997 ft | 493 kts | 349° |
| 2026-04-30 09:58 | 45.25017 | 45.61054 | 36997 ft | 493 kts | 349° |
| 2026-04-30 09:59 | 45.38446 | 45.57219 | 36997 ft | 493 kts | 349° |
| 2026-04-30 10:00 | 45.48461 | 45.54346 | 36997 ft | 493 kts | 349° |
| 2026-04-30 10:01 | 45.58496 | 45.51458 | 36997 ft | 493 kts | 349° |
| 2026-04-30 10:02 | 45.68556 | 45.48552 | 36997 ft | 493 kts | 349° |
| 2026-04-30 10:02 | 45.75239 | 45.46615 | 36997 ft | 493 kts | 349° |
| 2026-04-30 10:03 | 45.81925 | 45.44673 | 36997 ft | 493 kts | 349° |
| 2026-04-30 10:03 | 45.88617 | 45.42724 | 36997 ft | 493 kts | 349° |
| 2026-04-30 10:04 | 45.95356 | 45.40757 | 36997 ft | 493 kts | 349° |
| 2026-04-30 10:04 | 46.02029 | 45.38804 | 36997 ft | 493 kts | 349° |
| 2026-04-30 10:05 | 46.08737 | 45.36836 | 36997 ft | 493 kts | 349° |
| 2026-04-30 10:05 | 46.15429 | 45.34868 | 36997 ft | 493 kts | 349° |
| 2026-04-30 10:06 | 46.22086 | 45.32905 | 36997 ft | 493 kts | 349° |
| 2026-04-30 10:06 | 46.28784 | 45.30925 | 36997 ft | 493 kts | 349° |
| 2026-04-30 10:07 | 46.35502 | 45.28935 | 36997 ft | 493 kts | 349° |
| 2026-04-30 10:07 | 46.42168 | 45.26955 | 36997 ft | 493 kts | 349° |
| 2026-04-30 10:08 | 46.48883 | 45.24955 | 36997 ft | 493 kts | 349° |
| 2026-04-30 10:08 | 46.55573 | 45.22958 | 36997 ft | 493 kts | 349° |
| 2026-04-30 10:09 | 46.62286 | 45.20949 | 36997 ft | 493 kts | 349° |
| 2026-04-30 10:09 | 46.68964 | 45.18945 | 36997 ft | 493 kts | 349° |
| 2026-04-30 10:10 | 46.75664 | 45.16930 | 36997 ft | 493 kts | 349° |
| 2026-04-30 10:10 | 46.82328 | 45.14920 | 36997 ft | 493 kts | 349° |
| 2026-04-30 10:11 | 46.89041 | 45.12891 | 36997 ft | 493 kts | 349° |
| 2026-04-30 10:11 | 46.95721 | 45.10866 | 36997 ft | 493 kts | 349° |
| 2026-04-30 10:12 | 47.02408 | 45.08834 | 36997 ft | 493 kts | 349° |
| 2026-04-30 10:12 | 47.09080 | 45.06801 | 36997 ft | 493 kts | 349° |
| 2026-04-30 10:13 | 47.15761 | 45.04760 | 36997 ft | 493 kts | 349° |
| 2026-04-30 10:13 | 47.22439 | 45.02715 | 36997 ft | 493 kts | 349° |
| 2026-04-30 10:14 | 47.29132 | 45.00660 | 36997 ft | 493 kts | 349° |
| 2026-04-30 10:14 | 47.39204 | 44.97558 | 36997 ft | 493 kts | 349° |
| 2026-04-30 10:15 | 47.45857 | 44.95502 | 36997 ft | 493 kts | 349° |
| 2026-04-30 10:15 | 47.52578 | 44.93420 | 36997 ft | 493 kts | 349° |
| 2026-04-30 10:16 | 47.59224 | 44.91356 | 36997 ft | 493 kts | 349° |
| 2026-04-30 10:17 | 47.69283 | 44.88220 | 36997 ft | 493 kts | 349° |
| 2026-04-30 10:17 | 48.06196 | 44.76609 | 36982 ft | 493 kts | 349° |
| 2026-04-30 10:18 | 48.46513 | 44.63732 | 36983 ft | 493 kts | 349° |
| 2026-04-30 10:19 | 48.57127 | 44.57854 | 36981 ft | 493 kts | 328° |
| 2026-04-30 10:19 | 48.58255 | 44.56699 | 36981 ft | 493 kts | 325° |
| 2026-04-30 10:21 | 48.61788 | 44.52170 | 36995 ft | 493 kts | 319° |
| 2026-04-30 10:22 | 48.67083 | 44.45989 | 36999 ft | 493 kts | 325° |
| 2026-04-30 10:22 | 48.80535 | 44.32617 | 37022 ft | 493 kts | 339° |
| 2026-04-30 10:23 | 48.91909 | 44.26571 | 36999 ft | 493 kts | 340° |
| 2026-04-30 10:23 | 49.30298 | 44.04636 | 36970 ft | 493 kts | 340° |
| 2026-04-30 10:24 | 49.52651 | 43.91561 | 36977 ft | 493 kts | 334° |
| 2026-04-30 10:24 | 49.71234 | 43.75923 | 37020 ft | 493 kts | 333° |
| 2026-04-30 10:25 | 50.07295 | 43.45347 | 36994 ft | 493 kts | 332° |
| 2026-04-30 10:25 | 50.43145 | 43.14344 | 36970 ft | 493 kts | 331° |
| 2026-04-30 10:26 | 50.70427 | 42.90476 | 36997 ft | 493 kts | 334° |
| 2026-04-30 10:26 | 50.84726 | 42.83005 | 36922 ft | 493 kts | 342° |
| 2026-04-30 10:27 | 51.23286 | 42.61223 | 36971 ft | 493 kts | 341° |
| 2026-04-30 10:27 | 51.50387 | 42.45474 | 37007 ft | 494 kts | 341° |
| 2026-04-30 10:28 | 51.80019 | 42.28298 | 36972 ft | 493 kts | 340° |
| 2026-04-30 10:28 | 52.18585 | 42.05640 | 36983 ft | 493 kts | 341° |
| 2026-04-30 10:29 | 52.39742 | 41.94750 | 37014 ft | 493 kts | 350° |
| 2026-04-30 10:29 | 52.46795 | 41.94540 | 37027 ft | 493 kts | 9° |
| 2026-04-30 10:30 | 52.53821 | 41.96205 | 36983 ft | 493 kts | 4° |
| 2026-04-30 10:30 | 52.69532 | 41.96959 | 36974 ft | 493 kts | 354° |
| 2026-04-30 10:31 | 52.76002 | 41.94287 | 36981 ft | 493 kts | 339° |
| 2026-04-30 10:31 | 52.81857 | 41.88824 | 36981 ft | 493 kts | 323° |
| 2026-04-30 10:32 | 52.87138 | 41.79853 | 36981 ft | 493 kts | 308° |
| 2026-04-30 10:32 | 52.95018 | 41.63478 | 37026 ft | 493 kts | 320° |
| 2026-04-30 10:33 | 53.00633 | 41.56809 | 36983 ft | 493 kts | 323° |
| 2026-04-30 10:33 | 53.03321 | 41.53291 | 36930 ft | 482 kts | 322° |
| 2026-04-30 10:33 | 53.05872 | 41.49895 | 36827 ft | 454 kts | 322° |
| 2026-04-30 10:34 | 53.14120 | 41.38638 | 36767 ft | 430 kts | 321° |
| 2026-04-30 10:34 | 53.22709 | 41.26859 | 36521 ft | 417 kts | 324° |
| 2026-04-30 10:34 | 53.25051 | 41.24451 | 36055 ft | 413 kts | 335° |
| 2026-04-30 10:34 | 53.27596 | 41.22863 | 35406 ft | 413 kts | 346° |
| 2026-04-30 10:35 | 53.32473 | 41.21259 | 34401 ft | 409 kts | 351° |
| 2026-04-30 10:35 | 53.35154 | 41.20274 | 33934 ft | 405 kts | 345° |
| 2026-04-30 10:35 | 53.49137 | 41.13355 | 32224 ft | 397 kts | 343° |
| 2026-04-30 10:35 | 53.64609 | 41.05351 | 31092 ft | 385 kts | 344° |
| 2026-04-30 10:36 | 53.70523 | 41.02136 | 30396 ft | 378 kts | 335° |
| 2026-04-30 10:36 | 53.72622 | 40.99915 | 29860 ft | 377 kts | 320° |
| 2026-04-30 10:36 | 53.74332 | 40.96881 | 29335 ft | 375 kts | 306° |
| 2026-04-30 10:36 | 53.80586 | 40.76846 | 27484 ft | 368 kts | 291° |
| 2026-04-30 10:37 | 53.83970 | 40.53655 | 26320 ft | 357 kts | 277° |
| 2026-04-30 10:37 | 53.84463 | 40.46705 | 25851 ft | 350 kts | 285° |
| 2026-04-30 10:37 | 53.85391 | 40.42766 | 25310 ft | 349 kts | 300° |
| 2026-04-30 10:37 | 53.86589 | 40.39028 | 24719 ft | 349 kts | 297° |
| 2026-04-30 10:38 | 53.89552 | 40.27683 | 23553 ft | 346 kts | 294° |
| 2026-04-30 10:38 | 53.95134 | 40.05548 | 22345 ft | 336 kts | 293° |
| 2026-04-30 10:38 | 54.00511 | 39.84027 | 20964 ft | 327 kts | 294° |
| 2026-04-30 10:38 | 54.05680 | 39.62971 | 19438 ft | 320 kts | 294° |
| 2026-04-30 10:39 | 54.10772 | 39.42266 | 17933 ft | 313 kts | 294° |
| 2026-04-30 10:39 | 54.15698 | 39.21788 | 16422 ft | 305 kts | 293° |
| 2026-04-30 10:39 | 54.20488 | 39.01904 | 14891 ft | 298 kts | 292° |
| 2026-04-30 10:39 | 54.23525 | 38.89261 | 13938 ft | 292 kts | 300° |
| 2026-04-30 10:40 | 54.24878 | 38.86558 | 13530 ft | 291 kts | 326° |
| 2026-04-30 10:40 | 54.26801 | 38.85200 | 13070 ft | 290 kts | 353° |
| 2026-04-30 10:40 | 54.28891 | 38.85018 | 12606 ft | 288 kts | 355° |
| 2026-04-30 10:40 | 54.30907 | 38.84287 | 12176 ft | 288 kts | 343° |
| 2026-04-30 10:41 | 54.32873 | 38.83169 | 11861 ft | 285 kts | 342° |
| 2026-04-30 10:41 | 54.34943 | 38.81898 | 11464 ft | 283 kts | 340° |
| 2026-04-30 10:41 | 54.43789 | 38.75991 | 10029 ft | 278 kts | 339° |
| 2026-04-30 10:41 | 54.45554 | 38.74765 | 10000 ft | 281 kts | 339° |
| 2026-04-30 10:42 | 54.47353 | 38.73537 | 10001 ft | 280 kts | 339° |
| 2026-04-30 10:42 | 54.58015 | 38.66213 | 9961 ft | 277 kts | 339° |
| 2026-04-30 10:42 | 54.68598 | 38.58916 | 9927 ft | 268 kts | 339° |
| 2026-04-30 10:42 | 54.78590 | 38.51983 | 9577 ft | 238 kts | 339° |
| 2026-04-30 10:43 | 54.87046 | 38.46073 | 9813 ft | 205 kts | 339° |
| 2026-04-30 10:43 | 54.95216 | 38.40392 | 10197 ft | 214 kts | 339° |
| 2026-04-30 10:43 | 54.99316 | 38.37502 | 9993 ft | 209 kts | 339° |
| 2026-04-30 10:43 | 55.02265 | 38.35416 | 10015 ft | 208 kts | 339° |
| 2026-04-30 10:44 | 55.07196 | 38.31934 | 10010 ft | 209 kts | 339° |
| 2026-04-30 10:44 | 55.10994 | 38.29250 | 9991 ft | 209 kts | 339° |
| 2026-04-30 10:44 | 55.19089 | 38.23509 | 9998 ft | 209 kts | 339° |
| 2026-04-30 10:44 | 55.25193 | 38.19163 | 9993 ft | 209 kts | 339° |